Annapolis, Illinois
Current Conditions -  °F | °C
As of 8:35 PM on Wednesday 17 Dec 2014 (Local Time) from KRSV Reporting Station
Overcast Overcast  
Wind Chill: -7°   Ceiling: 1600
Heat Index: -3°   Visibility: 10mi
Dew Point: -5°   Wind: 7mph
Humidity: 84%   Direction: 10°N
Pressure: 30.32"   Gusts: NA
Location:  39.14°N, 87.82°W
Report Text: KRSV 180235Z AUTO 01006KT 10SM OVC016 M02/M05 A3032 RMK AO2 T10251049
Loading
Personal Weather Stations






























Interactive Weather Map New forecast layout! Learn more

10-Day Weather Forecast

Advertisements
Track Severe Weather on mobile